createdAt,value
2019-02-22T00:01:20.447Z,8.20
2019-02-22T00:03:49.217Z,8.30
2019-02-22T00:06:18.299Z,8.30
2019-02-22T00:08:47.063Z,8.20
2019-02-22T00:11:15.769Z,8.30
2019-02-22T00:13:44.415Z,8.20
2019-02-22T00:16:13.158Z,8.20
2019-02-22T00:18:42.146Z,8.20
2019-02-22T00:21:10.775Z,8.20
2019-02-22T00:23:39.477Z,8.20
2019-02-22T00:26:08.201Z,8.20
2019-02-22T00:28:36.929Z,8.20
2019-02-22T00:31:05.781Z,8.20
2019-02-22T00:33:34.337Z,8.20
2019-02-22T00:36:02.965Z,8.20
2019-02-22T00:38:31.800Z,8.20
2019-02-22T00:41:00.425Z,8.20
2019-02-22T00:43:29.141Z,8.20
2019-02-22T00:45:57.853Z,8.30
2019-02-22T00:48:26.577Z,8.30
2019-02-22T00:50:55.578Z,8.30
2019-02-22T00:53:24.244Z,8.30
2019-02-22T00:55:58.953Z,8.30
2019-02-22T00:58:23.317Z,8.20
2019-02-22T01:00:52.753Z,8.20
2019-02-22T01:03:21.395Z,8.20
2019-02-22T01:05:50.338Z,8.20
2019-02-22T01:08:19.289Z,8.30
2019-02-22T01:10:47.920Z,8.30
2019-02-22T01:13:19.452Z,8.30
2019-02-22T01:15:48.066Z,8.30
2019-02-22T01:18:16.624Z,8.20
2019-02-22T01:20:54.037Z,8.20
2019-02-22T01:23:15.651Z,8.20
2019-02-22T01:25:44.224Z,8.20
2019-02-22T01:28:12.934Z,8.20
2019-02-22T01:30:41.861Z,8.20
2019-02-22T01:33:10.508Z,8.20
2019-02-22T01:35:40.670Z,8.20
2019-02-22T01:38:09.423Z,8.20
2019-02-22T01:40:43.817Z,8.20
2019-02-22T01:43:10.740Z,8.20
2019-02-22T01:45:39.438Z,8.20
2019-02-22T01:48:08.148Z,8.20
2019-02-22T01:50:36.774Z,8.20
2019-02-22T01:53:05.461Z,8.20
2019-02-22T01:55:34.363Z,8.20
2019-02-22T01:58:03.386Z,8.10
2019-02-22T02:00:32.335Z,8.20
2019-02-22T02:03:00.981Z,8.20
2019-02-22T02:05:29.542Z,8.20
2019-02-22T02:07:58.282Z,8.20
2019-02-22T02:10:26.927Z,8.10
2019-02-22T02:12:55.562Z,8.10
2019-02-22T02:15:24.570Z,8.10
2019-02-22T02:17:53.212Z,8.10
2019-02-22T02:20:22.270Z,8.10
2019-02-22T02:22:51.622Z,8.10
2019-02-22T02:25:20.259Z,8.10
2019-02-22T02:27:49.089Z,8.10
2019-02-22T02:30:18.204Z,8.10
2019-02-22T02:32:46.848Z,8.10
2019-02-22T02:35:16.273Z,8.10
2019-02-22T02:37:50.680Z,8.10
2019-02-22T02:40:19.406Z,8.10
2019-02-22T02:42:48.202Z,8.10
2019-02-22T02:45:17.095Z,8.10
2019-02-22T02:47:45.739Z,8.10
2019-02-22T02:50:17.972Z,8.10
2019-02-22T02:52:46.696Z,8.10
2019-02-22T02:55:32.505Z,8.10
2019-02-22T02:58:01.454Z,8.10
2019-02-22T03:00:30.582Z,8.00
2019-02-22T03:03:02.723Z,8.00
2019-02-22T03:05:49.418Z,8.00
2019-02-22T03:08:18.191Z,8.00
2019-02-22T03:10:47.243Z,8.00
2019-02-22T03:13:15.932Z,8.00
2019-02-22T03:15:44.560Z,8.00
2019-02-22T03:18:13.276Z,8.00
2019-02-22T03:20:41.953Z,8.00
2019-02-22T03:23:10.591Z,7.90
2019-02-22T03:25:39.311Z,8.00
2019-02-22T03:28:09.855Z,7.90
2019-02-22T03:30:38.215Z,8.00
2019-02-22T03:33:06.847Z,7.90
2019-02-22T03:35:35.611Z,7.90
2019-02-22T03:38:05.972Z,7.90
2019-02-22T03:40:34.599Z,7.90
2019-02-22T03:43:03.334Z,7.90
2019-02-22T03:45:31.982Z,7.90
2019-02-22T03:48:00.607Z,7.90
2019-02-22T03:50:29.351Z,7.90
2019-02-22T03:53:08.443Z,7.90
2019-02-22T03:55:37.189Z,7.90
2019-02-22T03:58:05.901Z,7.90
2019-02-22T04:00:34.764Z,7.90
2019-02-22T04:03:03.509Z,7.90
2019-02-22T04:05:32.277Z,7.90
2019-02-22T04:08:00.989Z,7.90
2019-02-22T04:10:29.791Z,7.90
2019-02-22T04:12:58.500Z,7.90
2019-02-22T04:15:27.204Z,7.90
2019-02-22T04:17:56.319Z,7.80
2019-02-22T04:20:25.117Z,7.80
2019-02-22T04:22:53.762Z,7.80
2019-02-22T04:25:24.655Z,7.80
2019-02-22T04:27:53.288Z,7.80
2019-02-22T04:30:21.925Z,7.80
2019-02-22T04:32:50.583Z,7.80
2019-02-22T04:35:19.430Z,7.80
2019-02-22T04:37:47.959Z,7.80
2019-02-22T04:40:16.717Z,7.80
2019-02-22T04:42:45.432Z,7.70
2019-02-22T04:45:14.149Z,7.70
2019-02-22T04:47:42.829Z,7.70
2019-02-22T04:50:11.638Z,7.60
2019-02-22T04:52:40.361Z,7.60
2019-02-22T04:55:09.117Z,7.60
2019-02-22T04:57:37.841Z,7.60
2019-02-22T05:00:07.169Z,7.60
2019-02-22T05:02:37.406Z,7.60
2019-02-22T05:05:06.722Z,7.60
2019-02-22T05:07:35.429Z,7.60
2019-02-22T05:10:04.787Z,7.60
2019-02-22T05:12:33.695Z,7.60
2019-02-22T05:15:11.866Z,7.60
2019-02-22T05:17:35.732Z,7.50
2019-02-22T05:20:08.359Z,7.50
2019-02-22T05:22:36.990Z,7.50
2019-02-22T05:25:06.848Z,7.50
2019-02-22T05:27:35.823Z,7.50
2019-02-22T05:30:05.615Z,7.50
2019-02-22T05:32:34.365Z,7.50
2019-02-22T05:35:03.280Z,7.50
2019-02-22T05:37:32.045Z,7.50
2019-02-22T05:40:03.858Z,7.50
2019-02-22T05:42:34.567Z,7.50
2019-02-22T05:45:03.266Z,7.50
2019-02-22T05:47:31.958Z,7.50
2019-02-22T05:50:00.760Z,7.50
2019-02-22T05:52:32.466Z,7.50
2019-02-22T05:55:02.844Z,7.60
2019-02-22T05:57:31.716Z,7.50
2019-02-22T06:00:00.366Z,7.60
2019-02-22T06:02:29.031Z,7.50
2019-02-22T06:04:57.660Z,7.50
2019-02-22T06:07:26.310Z,7.50
2019-02-22T06:09:54.924Z,7.50
2019-02-22T06:12:33.844Z,7.50
2019-02-22T06:14:55.349Z,7.50
2019-02-22T06:17:24.059Z,7.50
2019-02-22T06:19:53.288Z,7.60
2019-02-22T06:22:29.474Z,7.60
2019-02-22T06:24:55.326Z,7.60
2019-02-22T06:27:23.974Z,7.60
2019-02-22T06:29:53.018Z,7.60
2019-02-22T06:32:21.680Z,7.60
2019-02-22T06:34:50.387Z,7.60
2019-02-22T06:37:20.686Z,7.60
2019-02-22T06:39:49.284Z,7.60
2019-02-22T06:42:18.106Z,7.60
2019-02-22T06:44:47.039Z,7.60
2019-02-22T06:47:16.772Z,7.60
2019-02-22T06:49:45.694Z,7.50
2019-02-22T06:52:14.333Z,7.50
2019-02-22T06:54:49.101Z,7.50
2019-02-22T06:57:17.737Z,7.60
2019-02-22T06:59:46.293Z,7.60
2019-02-22T07:02:15.035Z,7.50
2019-02-22T07:04:43.601Z,7.50
2019-02-22T07:07:12.239Z,7.50
2019-02-22T07:09:40.859Z,7.50
2019-02-22T07:12:26.239Z,7.50
2019-02-22T07:14:55.334Z,7.50
2019-02-22T07:17:23.932Z,7.50
2019-02-22T07:19:52.584Z,7.50
2019-02-22T07:22:21.252Z,7.60
2019-02-22T07:24:49.910Z,7.60
2019-02-22T07:27:19.578Z,7.60
2019-02-22T07:29:48.765Z,7.70
2019-02-22T07:32:19.467Z,7.70
2019-02-22T07:34:49.754Z,7.70
2019-02-22T07:37:18.776Z,7.70
2019-02-22T07:39:49.594Z,7.70
2019-02-22T07:42:18.300Z,7.70
2019-02-22T07:44:47.077Z,7.80
2019-02-22T07:47:15.785Z,7.80
2019-02-22T07:49:44.437Z,7.80
2019-02-22T07:52:13.241Z,7.80
2019-02-22T07:54:41.937Z,7.80
2019-02-22T07:57:10.715Z,7.80
2019-02-22T07:59:39.600Z,7.90
2019-02-22T08:02:08.309Z,7.90
2019-02-22T08:04:37.306Z,7.90
2019-02-22T08:07:06.193Z,7.90
2019-02-22T08:09:36.487Z,7.90
2019-02-22T08:12:12.989Z,8.00
2019-02-22T08:14:50.457Z,8.00
2019-02-22T08:17:19.333Z,8.00
2019-02-22T08:19:53.224Z,8.00
2019-02-22T08:22:22.095Z,8.00
2019-02-22T08:24:51.034Z,8.10
2019-02-22T08:27:19.819Z,8.10
2019-02-22T08:29:48.536Z,8.20
2019-02-22T08:32:17.377Z,8.20
2019-02-22T08:34:46.052Z,8.20
2019-02-22T08:37:15.035Z,8.20
2019-02-22T08:39:43.802Z,8.20
2019-02-22T08:42:12.588Z,8.20
2019-02-22T08:44:41.242Z,8.20
2019-02-22T08:47:12.381Z,8.20
2019-02-22T08:49:42.869Z,8.30
2019-02-22T08:52:12.575Z,8.30
2019-02-22T08:54:46.947Z,8.30
2019-02-22T08:57:11.837Z,8.30
2019-02-22T08:59:41.729Z,8.30
2019-02-22T09:02:10.527Z,8.30
2019-02-22T09:04:39.292Z,8.30
2019-02-22T09:07:08.135Z,8.30
2019-02-22T09:09:39.848Z,8.30
2019-02-22T09:12:08.685Z,8.30
2019-02-22T09:14:40.333Z,8.30
2019-02-22T09:17:09.177Z,8.20
2019-02-22T09:19:38.000Z,8.10
2019-02-22T09:22:09.295Z,8.10
2019-02-22T09:24:39.446Z,8.00
2019-02-22T09:27:10.227Z,8.10
2019-02-22T09:29:38.760Z,8.00
2019-02-22T09:32:07.500Z,8.10
2019-02-22T09:34:36.274Z,8.10
2019-02-22T09:37:07.783Z,8.10
2019-02-22T09:39:38.738Z,8.10
2019-02-22T09:42:07.633Z,8.10
2019-02-22T09:44:36.653Z,8.10
2019-02-22T09:47:08.143Z,8.10
2019-02-22T09:49:37.866Z,8.00
2019-02-22T09:52:15.528Z,8.00
2019-02-22T09:54:44.211Z,8.00
2019-02-22T09:57:12.937Z,8.00
2019-02-22T09:59:43.601Z,8.00
2019-02-22T10:02:12.299Z,8.20
2019-02-22T10:04:54.269Z,8.20
2019-02-22T10:07:13.666Z,8.40
2019-02-22T10:09:42.438Z,8.50
2019-02-22T10:12:11.070Z,8.50
2019-02-22T10:14:44.362Z,8.40
2019-02-22T10:17:13.034Z,8.40
2019-02-22T10:19:41.814Z,8.30
2019-02-22T10:22:10.471Z,8.30
2019-02-22T10:24:39.208Z,8.40
2019-02-22T10:27:08.355Z,8.50
2019-02-22T10:29:37.418Z,8.60
2019-02-22T10:32:06.166Z,8.70
2019-02-22T10:34:37.868Z,8.70
2019-02-22T10:37:06.984Z,8.80
2019-02-22T10:39:36.110Z,8.90
2019-02-22T10:42:05.683Z,8.80
2019-02-22T10:44:34.415Z,8.80
2019-02-22T10:47:03.190Z,8.80
2019-02-22T10:49:31.819Z,8.80
2019-02-22T10:52:00.521Z,8.70
2019-02-22T10:54:29.653Z,8.70
2019-02-22T10:57:01.315Z,8.70
2019-02-22T10:59:31.406Z,8.70
2019-02-22T11:02:02.508Z,8.80
2019-02-22T11:04:31.279Z,8.70
2019-02-22T11:07:02.687Z,8.60
2019-02-22T11:09:31.431Z,8.60
2019-02-22T11:12:01.603Z,8.60
2019-02-22T11:14:34.121Z,8.60
2019-02-22T11:17:03.569Z,8.70
2019-02-22T11:19:32.337Z,8.60
2019-02-22T11:22:01.151Z,8.70
2019-02-22T11:24:29.910Z,8.80
2019-02-22T11:26:58.559Z,8.70
2019-02-22T11:29:28.489Z,8.60
2019-02-22T11:31:57.289Z,8.70
2019-02-22T11:34:56.295Z,8.70
2019-02-22T11:36:56.269Z,8.70
2019-02-22T11:39:28.886Z,8.80
2019-02-22T11:41:57.497Z,8.60
2019-02-22T11:44:39.622Z,8.60
2019-02-22T11:47:02.296Z,8.70
2019-02-22T11:49:32.746Z,8.70
2019-02-22T11:52:01.386Z,8.80
2019-02-22T11:54:30.217Z,8.80
2019-02-22T11:56:59.121Z,8.80
2019-02-22T11:59:27.851Z,8.70
2019-02-22T12:01:56.915Z,8.70
2019-02-22T12:04:25.632Z,8.40
2019-02-22T12:06:54.351Z,8.30
2019-02-22T12:09:23.163Z,8.40
2019-02-22T12:11:52.983Z,8.40
2019-02-22T12:14:22.888Z,8.40
2019-02-22T12:16:51.617Z,8.30
2019-02-22T12:19:20.361Z,8.40
2019-02-22T12:21:49.291Z,8.40
2019-02-22T12:24:19.291Z,8.40
2019-02-22T12:26:48.285Z,8.40
2019-02-22T12:29:17.399Z,8.30
2019-02-22T12:31:52.066Z,8.40
2019-02-22T12:34:22.431Z,8.40
2019-02-22T12:36:51.356Z,8.40
2019-02-22T12:39:20.105Z,8.50
2019-02-22T12:41:50.598Z,8.50
2019-02-22T12:44:22.098Z,8.60
2019-02-22T12:46:50.756Z,8.60
2019-02-22T12:53:00.374Z,8.60
2019-02-22T12:55:29.008Z,8.60
2019-02-22T12:57:59.223Z,8.60
2019-02-22T13:00:28.160Z,8.70
2019-02-22T13:03:02.021Z,8.70
2019-02-22T13:05:29.525Z,8.70
2019-02-22T13:07:58.283Z,8.70
2019-02-22T13:10:28.447Z,8.80
2019-02-22T13:13:01.681Z,8.70
2019-02-22T13:15:30.343Z,8.70
2019-02-22T13:17:59.046Z,8.60
2019-02-22T13:20:28.726Z,8.70
2019-02-22T13:22:57.500Z,8.70
2019-02-22T13:25:32.816Z,8.70
2019-02-22T13:28:04.703Z,8.70
2019-02-22T13:30:33.622Z,8.80
2019-02-22T13:33:05.583Z,8.70
2019-02-22T13:35:35.927Z,8.70
2019-02-22T13:38:04.722Z,8.60
2019-02-22T13:40:33.457Z,8.60
2019-02-22T13:43:09.512Z,8.60
2019-02-22T13:45:38.394Z,8.60
2019-02-22T13:48:07.148Z,8.60
2019-02-22T13:50:35.910Z,8.70
2019-02-22T13:53:05.562Z,8.70
2019-02-22T13:55:34.270Z,8.80
2019-02-22T13:58:04.298Z,8.80
2019-02-22T14:00:35.683Z,8.80
2019-02-22T14:03:05.549Z,8.80
2019-02-22T14:05:34.216Z,8.80
2019-02-22T14:08:05.654Z,8.90
2019-02-22T14:10:34.296Z,8.90
2019-02-22T14:13:05.695Z,9.00
2019-02-22T14:15:38.305Z,9.00
2019-02-22T14:18:08.284Z,9.00
2019-02-22T14:20:37.379Z,9.00
2019-02-22T14:23:06.126Z,8.90
2019-02-22T14:25:34.845Z,8.90
2019-02-22T14:28:06.280Z,8.90
2019-02-22T14:30:35.072Z,8.80
2019-02-22T14:33:06.751Z,8.80
2019-02-22T14:35:39.474Z,8.80
2019-02-22T14:38:08.469Z,8.80
2019-02-22T14:40:39.760Z,8.60
2019-02-22T14:43:16.650Z,8.40
2019-02-22T14:45:49.319Z,8.40
2019-02-22T14:48:16.686Z,8.30
2019-02-22T14:50:45.405Z,8.20
2019-02-22T14:53:19.486Z,8.30
2019-02-22T14:55:46.720Z,8.40
2019-02-22T14:58:15.612Z,8.40
2019-02-22T15:00:44.362Z,8.30
2019-02-22T15:03:14.485Z,8.20
2019-02-22T15:05:44.629Z,8.00
2019-02-22T15:08:13.351Z,8.10
2019-02-22T15:10:44.777Z,8.10
2019-02-22T15:13:16.853Z,8.10
2019-02-22T15:15:45.299Z,8.10
2019-02-22T15:18:15.222Z,8.20
2019-02-22T15:20:46.163Z,8.20
2019-02-22T15:23:16.884Z,8.10
2019-02-22T15:25:49.522Z,8.00
2019-02-22T15:28:19.807Z,7.90
2019-02-22T15:30:48.463Z,7.90
2019-02-22T15:33:17.523Z,7.90
2019-02-22T15:35:46.120Z,7.80
2019-02-22T15:38:19.264Z,7.70
2019-02-22T15:40:52.810Z,7.60
2019-02-22T15:43:21.772Z,7.60
2019-02-22T15:45:52.037Z,7.40
2019-02-22T15:48:20.687Z,7.30
2019-02-22T15:50:49.321Z,7.20
2019-02-22T15:53:18.436Z,7.20
2019-02-22T15:55:47.066Z,7.20
2019-02-22T15:58:16.168Z,7.00
2019-02-22T16:00:48.490Z,6.90
2019-02-22T16:03:19.646Z,6.80
2019-02-22T16:05:54.105Z,6.70
2019-02-22T16:08:24.482Z,6.60
2019-02-22T16:10:53.198Z,6.50
2019-02-22T16:13:21.947Z,6.40
2019-02-22T16:15:50.928Z,6.40
2019-02-22T16:18:25.248Z,6.20
2019-02-22T16:20:58.253Z,6.30
2019-02-22T16:23:29.761Z,6.20
2019-02-22T16:26:01.911Z,6.20
2019-02-22T16:28:33.871Z,6.00
2019-02-22T16:31:04.932Z,6.10
2019-02-22T16:33:38.401Z,6.00
2019-02-22T16:36:08.512Z,6.00
2019-02-22T16:38:37.191Z,6.00
2019-02-22T16:41:08.429Z,6.00
2019-02-22T16:43:39.791Z,6.00
2019-02-22T16:46:16.315Z,6.00
2019-02-22T16:48:44.944Z,6.00
2019-02-22T16:51:17.331Z,5.90
2019-02-22T16:53:47.139Z,5.90
2019-02-22T16:56:16.031Z,5.90
2019-02-22T16:58:44.919Z,5.90
2019-02-22T17:01:21.767Z,5.60
2019-02-22T17:03:50.578Z,5.50
2019-02-22T17:06:19.397Z,5.40
2019-02-22T17:08:50.653Z,5.30
2019-02-22T17:11:19.619Z,5.30
2019-02-22T17:13:48.290Z,5.30
2019-02-22T17:16:22.997Z,5.20
2019-02-22T17:21:36.911Z,5.10
2019-02-22T17:24:27.122Z,5.20
2019-02-22T17:27:07.150Z,5.30
2019-02-22T17:29:38.846Z,5.30
2019-02-22T17:32:12.286Z,5.20
2019-02-22T17:34:49.821Z,5.20
2019-02-22T17:37:21.482Z,5.10
2019-02-22T17:39:53.024Z,5.10
2019-02-22T17:42:40.982Z,5.00
2019-02-22T17:45:11.178Z,5.00
2019-02-22T17:47:40.116Z,5.00
2019-02-22T17:50:12.287Z,4.80
2019-02-22T17:52:43.658Z,4.80
2019-02-22T17:55:16.542Z,4.90
2019-02-22T17:57:45.247Z,4.80
2019-02-22T18:00:20.344Z,4.70
2019-02-22T18:03:03.009Z,4.60
2019-02-22T18:05:27.796Z,4.60
2019-02-22T18:08:04.120Z,4.60
2019-02-22T18:10:35.508Z,4.50
2019-02-22T18:13:08.294Z,4.40
2019-02-22T18:15:37.384Z,4.40
2019-02-22T18:18:09.208Z,4.30
2019-02-22T18:20:37.915Z,4.40
2019-02-22T18:23:06.750Z,4.30
2019-02-22T18:25:40.193Z,4.30
2019-02-22T18:28:08.934Z,4.20
2019-02-22T18:30:37.797Z,4.10
2019-02-22T18:33:06.998Z,4.10
2019-02-22T18:35:37.592Z,4.00
2019-02-22T18:38:08.005Z,4.00
2019-02-22T18:40:37.935Z,4.00
2019-02-22T18:43:09.264Z,4.00
2019-02-22T18:45:41.726Z,4.00
2019-02-22T18:48:12.175Z,3.90
2019-02-22T18:50:42.880Z,3.80
2019-02-22T18:53:22.336Z,3.80
2019-02-22T18:55:53.242Z,3.80
2019-02-22T18:58:22.178Z,3.70
2019-02-22T19:00:52.448Z,3.70
2019-02-22T19:03:23.995Z,3.70
2019-02-22T19:05:52.855Z,3.70
2019-02-22T19:08:31.775Z,3.70
2019-02-22T19:10:53.195Z,3.60
2019-02-22T19:13:21.843Z,3.60
2019-02-22T19:15:53.510Z,3.60
2019-02-22T19:18:26.141Z,3.50
2019-02-22T19:20:55.192Z,3.40
2019-02-22T19:23:26.497Z,3.40
2019-02-22T19:25:55.235Z,3.40
2019-02-22T19:28:24.759Z,3.40
2019-02-22T19:31:00.700Z,3.40
2019-02-22T19:33:33.032Z,3.40
2019-02-22T19:36:07.451Z,3.40
2019-02-22T19:38:39.775Z,3.40
2019-02-22T19:41:08.456Z,3.40
2019-02-22T19:43:45.751Z,3.40
2019-02-22T19:46:16.192Z,3.50
2019-02-22T19:48:57.133Z,3.40
2019-02-22T19:51:31.612Z,3.30
2019-02-22T19:54:04.687Z,3.30
2019-02-22T19:56:33.261Z,3.30
2019-02-22T19:59:06.593Z,3.30
2019-02-22T20:01:37.223Z,3.30
2019-02-22T20:04:06.150Z,3.30
2019-02-22T20:06:41.266Z,3.40
2019-02-22T20:09:14.603Z,3.40
2019-02-22T20:11:48.153Z,3.40
2019-02-22T20:14:25.642Z,3.40
2019-02-22T20:16:54.392Z,3.30
2019-02-22T20:19:25.861Z,3.30
2019-02-22T20:21:59.000Z,3.40
2019-02-22T20:24:28.606Z,3.30
2019-02-22T20:27:05.845Z,3.30
2019-02-22T20:29:34.709Z,3.20
2019-02-22T20:32:06.143Z,3.20
2019-02-22T20:34:34.973Z,3.20
2019-02-22T20:37:03.868Z,3.20
2019-02-22T20:39:36.583Z,3.10
2019-02-22T20:42:09.904Z,3.10
2019-02-22T20:44:40.688Z,3.10
2019-02-22T20:47:26.787Z,3.10
2019-02-22T20:49:57.361Z,3.10
2019-02-22T20:52:30.135Z,3.10
2019-02-22T20:54:59.628Z,3.10
2019-02-22T20:57:31.650Z,3.10
2019-02-22T21:00:00.555Z,3.00
2019-02-22T21:02:33.719Z,3.00
2019-02-22T21:05:02.344Z,2.90
2019-02-22T21:07:34.333Z,2.80
2019-02-22T21:10:06.694Z,2.70
2019-02-22T21:12:38.144Z,2.70
2019-02-22T21:15:10.827Z,2.70
2019-02-22T21:17:39.397Z,2.70
2019-02-22T21:20:15.783Z,2.60
2019-02-22T21:22:44.402Z,2.50
2019-02-22T21:25:13.316Z,2.50
2019-02-22T21:27:47.732Z,2.50
2019-02-22T21:30:20.528Z,2.50
2019-02-22T21:32:50.806Z,2.40
2019-02-22T21:35:28.123Z,2.40
2019-02-22T21:38:00.003Z,2.30
2019-02-22T21:40:33.472Z,2.40
2019-02-22T21:43:15.207Z,2.30
2019-02-22T21:45:43.866Z,2.40
2019-02-22T21:48:13.236Z,2.40
2019-02-22T21:50:45.258Z,2.30
2019-02-22T21:53:13.871Z,2.10
2019-02-22T21:55:42.687Z,2.10
2019-02-22T21:58:16.818Z,2.10
2019-02-22T22:00:46.885Z,2.10
2019-02-22T22:03:19.918Z,2.10
2019-02-22T22:05:50.819Z,2.00
2019-02-22T22:08:22.766Z,1.90
2019-02-22T22:10:52.259Z,1.90
2019-02-22T22:13:21.610Z,2.00
2019-02-22T22:15:50.594Z,2.00
2019-02-22T22:18:22.134Z,2.00
2019-02-22T22:20:51.840Z,2.00
2019-02-22T22:23:23.759Z,2.00
2019-02-22T22:25:52.436Z,2.00
2019-02-22T22:28:21.094Z,2.00
2019-02-22T22:30:49.742Z,1.90
2019-02-22T22:33:20.828Z,1.90
2019-02-22T22:35:49.770Z,1.80
2019-02-22T22:38:18.491Z,1.80
2019-02-22T22:40:47.176Z,1.80
2019-02-22T22:43:17.815Z,1.80
2019-02-22T22:45:49.264Z,1.80
2019-02-22T22:48:18.339Z,1.80
2019-02-22T22:51:12.155Z,1.90
2019-02-22T22:53:42.933Z,1.80
2019-02-22T22:56:11.646Z,1.70
2019-02-22T22:58:40.280Z,1.60
2019-02-22T23:01:11.856Z,1.50
2019-02-22T23:03:41.348Z,1.50
2019-02-22T23:06:12.537Z,1.40
2019-02-22T23:08:44.649Z,1.40
2019-02-22T23:11:13.631Z,1.30
2019-02-22T23:13:47.125Z,1.20
2019-02-22T23:16:15.506Z,1.10
2019-02-22T23:18:44.208Z,1.00
2019-02-22T23:21:12.921Z,0.90
2019-02-22T23:23:41.597Z,0.90
2019-02-22T23:26:10.441Z,0.90
2019-02-22T23:28:40.617Z,0.90
2019-02-22T23:31:09.733Z,0.90
2019-02-22T23:33:38.643Z,0.90
2019-02-22T23:36:07.349Z,0.80
2019-02-22T23:38:36.200Z,0.80
2019-02-22T23:41:06.303Z,0.80
2019-02-22T23:43:35.146Z,0.70
2019-02-22T23:46:05.005Z,0.70
2019-02-22T23:48:33.684Z,0.70
2019-02-22T23:51:05.063Z,0.70
2019-02-22T23:53:33.846Z,0.60
2019-02-22T23:56:02.567Z,0.60
2019-02-22T23:58:31.203Z,0.60
